sensor_id;sensor_type;location;lat;lon;timestamp;temperature;humidity
47162;DHT22;32921;53.256;8.198;2022-08-25T00:00:59;19.50;99.40
47162;DHT22;32921;53.256;8.198;2022-08-25T00:03:24;19.40;99.80
47162;DHT22;32921;53.256;8.198;2022-08-25T00:05:50;19.40;99.90
47162;DHT22;32921;53.256;8.198;2022-08-25T00:08:16;19.40;99.90
47162;DHT22;32921;53.256;8.198;2022-08-25T00:10:41;19.30;99.50
47162;DHT22;32921;53.256;8.198;2022-08-25T00:13:07;19.20;99.90
47162;DHT22;32921;53.256;8.198;2022-08-25T00:15:33;19.10;99.90
47162;DHT22;32921;53.256;8.198;2022-08-25T00:17:59;19.00;99.90
47162;DHT22;32921;53.256;8.198;2022-08-25T00:20:27;18.90;99.90
47162;DHT22;32921;53.256;8.198;2022-08-25T00:22:53;18.70;99.90
47162;DHT22;32921;53.256;8.198;2022-08-25T00:25:21;18.80;99.90
47162;DHT22;32921;53.256;8.198;2022-08-25T00:27:48;18.90;99.90
47162;DHT22;32921;53.256;8.198;2022-08-25T00:30:15;18.80;99.90
47162;DHT22;32921;53.256;8.198;2022-08-25T00:32:41;18.70;99.90
47162;DHT22;32921;53.256;8.198;2022-08-25T00:35:07;18.70;99.90
47162;DHT22;32921;53.256;8.198;2022-08-25T00:37:32;18.70;99.90
47162;DHT22;32921;53.256;8.198;2022-08-25T00:39:58;18.70;99.90
47162;DHT22;32921;53.256;8.198;2022-08-25T00:42:24;18.70;99.90
47162;DHT22;32921;53.256;8.198;2022-08-25T00:44:50;18.70;99.90
47162;DHT22;32921;53.256;8.198;2022-08-25T00:47:16;18.70;99.90
47162;DHT22;32921;53.256;8.198;2022-08-25T00:49:45;18.60;99.90
47162;DHT22;32921;53.256;8.198;2022-08-25T00:52:31;18.60;99.90
47162;DHT22;32921;53.256;8.198;2022-08-25T00:57:29;18.50;99.90
47162;DHT22;32921;53.256;8.198;2022-08-25T00:59:56;18.40;99.90
47162;DHT22;32921;53.256;8.198;2022-08-25T01:02:22;18.40;99.90
47162;DHT22;32921;53.256;8.198;2022-08-25T01:04:48;18.30;99.90
47162;DHT22;32921;53.256;8.198;2022-08-25T01:07:14;18.30;99.90
47162;DHT22;32921;53.256;8.198;2022-08-25T01:09:41;18.10;99.90
47162;DHT22;32921;53.256;8.198;2022-08-25T01:12:08;17.90;99.90
47162;DHT22;32921;53.256;8.198;2022-08-25T01:14:34;17.80;99.90
47162;DHT22;32921;53.256;8.198;2022-08-25T01:17:01;17.80;99.90
47162;DHT22;32921;53.256;8.198;2022-08-25T01:19:27;17.80;99.90
47162;DHT22;32921;53.256;8.198;2022-08-25T01:21:53;17.60;99.90
47162;DHT22;32921;53.256;8.198;2022-08-25T01:24:30;17.40;99.90
47162;DHT22;32921;53.256;8.198;2022-08-25T01:26:57;17.60;99.90
47162;DHT22;32921;53.256;8.198;2022-08-25T01:29:23;17.50;99.90
47162;DHT22;32921;53.256;8.198;2022-08-25T01:31:53;17.40;99.90
47162;DHT22;32921;53.256;8.198;2022-08-25T01:34:22;17.30;99.90
47162;DHT22;32921;53.256;8.198;2022-08-25T01:36:48;17.20;99.90
47162;DHT22;32921;53.256;8.198;2022-08-25T01:39:14;17.10;99.90
47162;DHT22;32921;53.256;8.198;2022-08-25T01:44:35;17.10;99.90
47162;DHT22;32921;53.256;8.198;2022-08-25T01:50:23;17.10;99.90
47162;DHT22;32921;53.256;8.198;2022-08-25T01:53:30;17.00;99.90
47162;DHT22;32921;53.256;8.198;2022-08-25T01:56:15;17.10;99.90
47162;DHT22;32921;53.256;8.198;2022-08-25T01:59:19;17.10;99.90
47162;DHT22;32921;53.256;8.198;2022-08-25T02:01:45;17.20;99.90
47162;DHT22;32921;53.256;8.198;2022-08-25T02:04:10;17.10;99.90
47162;DHT22;32921;53.256;8.198;2022-08-25T02:06:37;17.00;99.90
47162;DHT22;32921;53.256;8.198;2022-08-25T02:09:07;17.00;99.90
47162;DHT22;32921;53.256;8.198;2022-08-25T02:11:35;17.00;99.90
47162;DHT22;32921;53.256;8.198;2022-08-25T02:14:02;17.00;99.90
47162;DHT22;32921;53.256;8.198;2022-08-25T02:19:34;17.20;99.90
47162;DHT22;32921;53.256;8.198;2022-08-25T02:22:00;17.40;99.90
47162;DHT22;32921;53.256;8.198;2022-08-25T02:24:25;17.40;99.90
47162;DHT22;32921;53.256;8.198;2022-08-25T02:26:51;17.30;99.90
47162;DHT22;32921;53.256;8.198;2022-08-25T02:29:17;17.20;99.90
47162;DHT22;32921;53.256;8.198;2022-08-25T02:31:42;17.10;99.90
47162;DHT22;32921;53.256;8.198;2022-08-25T02:34:09;17.10;99.90
47162;DHT22;32921;53.256;8.198;2022-08-25T02:36:36;17.10;99.90
47162;DHT22;32921;53.256;8.198;2022-08-25T02:39:04;17.10;99.90
47162;DHT22;32921;53.256;8.198;2022-08-25T02:41:30;17.20;99.90
47162;DHT22;32921;53.256;8.198;2022-08-25T02:43:55;17.10;99.90
47162;DHT22;32921;53.256;8.198;2022-08-25T02:46:22;17.10;99.90
47162;DHT22;32921;53.256;8.198;2022-08-25T02:48:49;17.10;99.90
47162;DHT22;32921;53.256;8.198;2022-08-25T02:51:16;17.10;99.90
47162;DHT22;32921;53.256;8.198;2022-08-25T02:53:42;17.30;99.90
47162;DHT22;32921;53.256;8.198;2022-08-25T02:56:10;17.20;99.90
47162;DHT22;32921;53.256;8.198;2022-08-25T02:58:37;17.30;99.90
47162;DHT22;32921;53.256;8.198;2022-08-25T03:01:02;17.30;99.90
47162;DHT22;32921;53.256;8.198;2022-08-25T03:03:28;17.20;99.90
47162;DHT22;32921;53.256;8.198;2022-08-25T03:05:54;17.20;99.90
47162;DHT22;32921;53.256;8.198;2022-08-25T03:08:20;17.10;99.90
47162;DHT22;32921;53.256;8.198;2022-08-25T03:10:46;17.10;99.90
47162;DHT22;32921;53.256;8.198;2022-08-25T03:13:11;17.00;99.90
47162;DHT22;32921;53.256;8.198;2022-08-25T03:15:44;17.10;99.90
47162;DHT22;32921;53.256;8.198;2022-08-25T03:18:10;17.10;99.90
47162;DHT22;32921;53.256;8.198;2022-08-25T03:20:36;17.00;99.90
47162;DHT22;32921;53.256;8.198;2022-08-25T03:23:04;17.00;99.90
47162;DHT22;32921;53.256;8.198;2022-08-25T03:25:29;16.90;99.90
47162;DHT22;32921;53.256;8.198;2022-08-25T03:28:14;16.90;99.90
47162;DHT22;32921;53.256;8.198;2022-08-25T03:30:40;16.90;99.90
47162;DHT22;32921;53.256;8.198;2022-08-25T03:33:05;16.90;99.90
47162;DHT22;32921;53.256;8.198;2022-08-25T03:35:31;16.80;99.90
47162;DHT22;32921;53.256;8.198;2022-08-25T03:37:58;16.60;99.90
47162;DHT22;32921;53.256;8.198;2022-08-25T03:40:24;16.60;99.90
47162;DHT22;32921;53.256;8.198;2022-08-25T03:42:49;16.40;99.90
47162;DHT22;32921;53.256;8.198;2022-08-25T03:45:16;16.40;99.90
47162;DHT22;32921;53.256;8.198;2022-08-25T03:47:46;16.60;99.90
47162;DHT22;32921;53.256;8.198;2022-08-25T03:50:12;16.50;99.90
47162;DHT22;32921;53.256;8.198;2022-08-25T03:52:38;16.40;99.90
47162;DHT22;32921;53.256;8.198;2022-08-25T03:55:07;16.50;99.90
47162;DHT22;32921;53.256;8.198;2022-08-25T03:57:39;16.50;99.90
47162;DHT22;32921;53.256;8.198;2022-08-25T04:00:07;16.30;99.90
47162;DHT22;32921;53.256;8.198;2022-08-25T04:02:33;16.10;99.90
47162;DHT22;32921;53.256;8.198;2022-08-25T04:04:59;16.00;99.90
47162;DHT22;32921;53.256;8.198;2022-08-25T04:07:25;16.00;99.90
47162;DHT22;32921;53.256;8.198;2022-08-25T04:09:53;16.20;99.90
47162;DHT22;32921;53.256;8.198;2022-08-25T04:12:19;16.10;99.90
47162;DHT22;32921;53.256;8.198;2022-08-25T04:14:44;16.30;99.90
47162;DHT22;32921;53.256;8.198;2022-08-25T04:17:10;16.30;99.90
47162;DHT22;32921;53.256;8.198;2022-08-25T04:19:36;16.30;99.90
47162;DHT22;32921;53.256;8.198;2022-08-25T04:22:02;16.50;99.90
47162;DHT22;32921;53.256;8.198;2022-08-25T04:24:28;16.60;99.90
47162;DHT22;32921;53.256;8.198;2022-08-25T04:26:53;16.60;99.90
47162;DHT22;32921;53.256;8.198;2022-08-25T04:29:22;16.70;99.90
47162;DHT22;32921;53.256;8.198;2022-08-25T04:31:48;16.50;99.90
47162;DHT22;32921;53.256;8.198;2022-08-25T04:34:18;16.50;99.90
47162;DHT22;32921;53.256;8.198;2022-08-25T04:36:44;16.60;99.90
47162;DHT22;32921;53.256;8.198;2022-08-25T04:39:10;16.40;99.90
47162;DHT22;32921;53.256;8.198;2022-08-25T04:41:36;16.40;99.90
47162;DHT22;32921;53.256;8.198;2022-08-25T04:44:02;16.50;99.90
47162;DHT22;32921;53.256;8.198;2022-08-25T04:46:30;16.60;99.90
47162;DHT22;32921;53.256;8.198;2022-08-25T04:48:57;16.60;99.90
47162;DHT22;32921;53.256;8.198;2022-08-25T04:51:29;16.70;99.90
47162;DHT22;32921;53.256;8.198;2022-08-25T04:53:58;16.80;99.90
47162;DHT22;32921;53.256;8.198;2022-08-25T04:56:24;16.80;99.90
47162;DHT22;32921;53.256;8.198;2022-08-25T04:58:51;16.90;99.90
47162;DHT22;32921;53.256;8.198;2022-08-25T05:01:19;16.90;99.90
47162;DHT22;32921;53.256;8.198;2022-08-25T05:03:47;16.90;99.90
47162;DHT22;32921;53.256;8.198;2022-08-25T05:06:13;16.80;99.90
47162;DHT22;32921;53.256;8.198;2022-08-25T05:08:39;16.80;99.90
47162;DHT22;32921;53.256;8.198;2022-08-25T05:11:10;16.90;99.90
47162;DHT22;32921;53.256;8.198;2022-08-25T05:13:39;16.80;99.90
47162;DHT22;32921;53.256;8.198;2022-08-25T05:16:06;16.90;99.90
47162;DHT22;32921;53.256;8.198;2022-08-25T05:18:33;17.00;99.90
47162;DHT22;32921;53.256;8.198;2022-08-25T05:21:19;17.00;99.90
47162;DHT22;32921;53.256;8.198;2022-08-25T05:23:46;17.00;99.90
47162;DHT22;32921;53.256;8.198;2022-08-25T05:26:19;17.10;99.90
47162;DHT22;32921;53.256;8.198;2022-08-25T05:28:44;17.10;99.90
47162;DHT22;32921;53.256;8.198;2022-08-25T05:31:12;17.20;99.90
47162;DHT22;32921;53.256;8.198;2022-08-25T05:33:40;17.20;99.90
47162;DHT22;32921;53.256;8.198;2022-08-25T05:36:07;17.40;99.90
47162;DHT22;32921;53.256;8.198;2022-08-25T05:38:32;17.50;99.90
47162;DHT22;32921;53.256;8.198;2022-08-25T05:41:00;17.50;99.90
47162;DHT22;32921;53.256;8.198;2022-08-25T05:43:27;17.70;99.90
47162;DHT22;32921;53.256;8.198;2022-08-25T05:45:56;17.70;99.90
47162;DHT22;32921;53.256;8.198;2022-08-25T05:48:23;17.80;99.90
47162;DHT22;32921;53.256;8.198;2022-08-25T05:50:53;17.90;99.90
47162;DHT22;32921;53.256;8.198;2022-08-25T05:53:20;17.90;99.90
47162;DHT22;32921;53.256;8.198;2022-08-25T05:55:46;18.10;99.90
47162;DHT22;32921;53.256;8.198;2022-08-25T05:58:12;18.20;99.90
47162;DHT22;32921;53.256;8.198;2022-08-25T06:00:38;18.20;99.90
47162;DHT22;32921;53.256;8.198;2022-08-25T06:03:04;18.40;99.90
47162;DHT22;32921;53.256;8.198;2022-08-25T06:05:31;18.50;99.90
47162;DHT22;32921;53.256;8.198;2022-08-25T06:07:57;18.60;99.90
47162;DHT22;32921;53.256;8.198;2022-08-25T06:10:23;18.70;99.90
47162;DHT22;32921;53.256;8.198;2022-08-25T06:12:49;18.80;99.90
47162;DHT22;32921;53.256;8.198;2022-08-25T06:15:18;18.90;99.90
47162;DHT22;32921;53.256;8.198;2022-08-25T06:17:46;19.00;99.90
47162;DHT22;32921;53.256;8.198;2022-08-25T06:20:15;19.10;99.90
47162;DHT22;32921;53.256;8.198;2022-08-25T06:22:41;19.30;99.90
47162;DHT22;32921;53.256;8.198;2022-08-25T06:25:09;19.40;99.90
47162;DHT22;32921;53.256;8.198;2022-08-25T06:27:35;19.50;99.90
47162;DHT22;32921;53.256;8.198;2022-08-25T06:30:01;19.70;99.90
47162;DHT22;32921;53.256;8.198;2022-08-25T06:32:31;19.80;99.90
47162;DHT22;32921;53.256;8.198;2022-08-25T06:34:57;19.90;99.90
47162;DHT22;32921;53.256;8.198;2022-08-25T06:37:24;20.00;99.90
47162;DHT22;32921;53.256;8.198;2022-08-25T06:39:49;20.20;99.90
47162;DHT22;32921;53.256;8.198;2022-08-25T06:42:15;20.60;99.90
47162;DHT22;32921;53.256;8.198;2022-08-25T06:44:41;20.90;99.90
47162;DHT22;32921;53.256;8.198;2022-08-25T06:47:06;21.20;99.90
47162;DHT22;32921;53.256;8.198;2022-08-25T06:49:32;21.50;99.90
47162;DHT22;32921;53.256;8.198;2022-08-25T06:51:58;22.00;99.90
47162;DHT22;32921;53.256;8.198;2022-08-25T06:54:23;22.40;99.90
47162;DHT22;32921;53.256;8.198;2022-08-25T06:56:49;22.60;99.90
47162;DHT22;32921;53.256;8.198;2022-08-25T06:59:15;22.80;99.90
47162;DHT22;32921;53.256;8.198;2022-08-25T07:01:41;22.70;99.90
47162;DHT22;32921;53.256;8.198;2022-08-25T07:04:08;22.80;99.90
47162;DHT22;32921;53.256;8.198;2022-08-25T07:06:33;22.80;99.90
47162;DHT22;32921;53.256;8.198;2022-08-25T07:09:00;23.00;99.90
47162;DHT22;32921;53.256;8.198;2022-08-25T07:11:26;23.50;99.90
47162;DHT22;32921;53.256;8.198;2022-08-25T07:13:52;24.10;99.90
47162;DHT22;32921;53.256;8.198;2022-08-25T07:16:19;24.50;99.90
47162;DHT22;32921;53.256;8.198;2022-08-25T07:18:46;24.80;99.90
47162;DHT22;32921;53.256;8.198;2022-08-25T07:21:13;24.60;99.90
47162;DHT22;32921;53.256;8.198;2022-08-25T07:23:40;24.60;99.90
47162;DHT22;32921;53.256;8.198;2022-08-25T07:26:18;24.80;99.90
47162;DHT22;32921;53.256;8.198;2022-08-25T07:28:44;25.30;99.90
47162;DHT22;32921;53.256;8.198;2022-08-25T07:31:10;26.00;99.90
47162;DHT22;32921;53.256;8.198;2022-08-25T07:33:36;25.70;99.90
47162;DHT22;32921;53.256;8.198;2022-08-25T07:36:03;25.80;99.90
47162;DHT22;32921;53.256;8.198;2022-08-25T07:38:28;26.40;99.90
47162;DHT22;32921;53.256;8.198;2022-08-25T07:41:04;27.10;98.50
47162;DHT22;32921;53.256;8.198;2022-08-25T07:43:29;26.90;97.80
47162;DHT22;32921;53.256;8.198;2022-08-25T07:45:55;26.60;97.70
47162;DHT22;32921;53.256;8.198;2022-08-25T07:48:20;26.40;98.90
47162;DHT22;32921;53.256;8.198;2022-08-25T07:50:47;26.60;98.50
47162;DHT22;32921;53.256;8.198;2022-08-25T07:53:14;26.70;98.10
47162;DHT22;32921;53.256;8.198;2022-08-25T07:55:41;27.00;97.30
47162;DHT22;32921;53.256;8.198;2022-08-25T07:58:08;26.90;96.90
47162;DHT22;32921;53.256;8.198;2022-08-25T08:00:35;27.00;97.30
47162;DHT22;32921;53.256;8.198;2022-08-25T08:03:03;27.40;96.70
47162;DHT22;32921;53.256;8.198;2022-08-25T08:05:29;28.00;95.80
47162;DHT22;32921;53.256;8.198;2022-08-25T08:07:55;28.20;94.00
47162;DHT22;32921;53.256;8.198;2022-08-25T08:10:22;27.80;94.20
47162;DHT22;32921;53.256;8.198;2022-08-25T08:12:48;27.40;95.40
47162;DHT22;32921;53.256;8.198;2022-08-25T08:15:14;28.00;94.20
47162;DHT22;32921;53.256;8.198;2022-08-25T08:17:40;28.00;94.00
47162;DHT22;32921;53.256;8.198;2022-08-25T08:20:07;27.50;95.00
47162;DHT22;32921;53.256;8.198;2022-08-25T08:22:35;28.40;94.20
47162;DHT22;32921;53.256;8.198;2022-08-25T08:25:01;28.20;93.80
47162;DHT22;32921;53.256;8.198;2022-08-25T08:27:27;28.70;93.90
47162;DHT22;32921;53.256;8.198;2022-08-25T08:29:53;28.70;93.70
47162;DHT22;32921;53.256;8.198;2022-08-25T08:32:19;28.80;92.00
47162;DHT22;32921;53.256;8.198;2022-08-25T08:34:45;28.80;92.20
47162;DHT22;32921;53.256;8.198;2022-08-25T08:37:12;29.40;91.20
47162;DHT22;32921;53.256;8.198;2022-08-25T08:39:38;29.00;91.60
47162;DHT22;32921;53.256;8.198;2022-08-25T08:48:16;29.00;91.50
47162;DHT22;32921;53.256;8.198;2022-08-25T08:56:08;30.10;91.10
47162;DHT22;32921;53.256;8.198;2022-08-25T08:58:39;30.60;86.00
47162;DHT22;32921;53.256;8.198;2022-08-25T09:01:08;30.70;84.90
47162;DHT22;32921;53.256;8.198;2022-08-25T09:03:45;30.70;86.00
47162;DHT22;32921;53.256;8.198;2022-08-25T09:06:23;30.00;85.80
47162;DHT22;32921;53.256;8.198;2022-08-25T09:08:57;30.50;86.20
47162;DHT22;32921;53.256;8.198;2022-08-25T09:14:13;31.40;83.10
47162;DHT22;32921;53.256;8.198;2022-08-25T09:16:53;31.00;83.30
47162;DHT22;32921;53.256;8.198;2022-08-25T09:27:46;29.90;85.00
47162;DHT22;32921;53.256;8.198;2022-08-25T09:30:16;30.50;83.50
47162;DHT22;32921;53.256;8.198;2022-08-25T09:32:49;29.70;83.50
47162;DHT22;32921;53.256;8.198;2022-08-25T09:35:27;29.60;86.10
47162;DHT22;32921;53.256;8.198;2022-08-25T09:37:58;29.80;86.20
47162;DHT22;32921;53.256;8.198;2022-08-25T09:40:25;30.00;85.60
47162;DHT22;32921;53.256;8.198;2022-08-25T09:42:55;30.70;82.90
47162;DHT22;32921;53.256;8.198;2022-08-25T09:45:43;30.50;81.10
47162;DHT22;32921;53.256;8.198;2022-08-25T09:48:20;30.30;80.60
47162;DHT22;32921;53.256;8.198;2022-08-25T09:50:47;29.80;83.50
47162;DHT22;32921;53.256;8.198;2022-08-25T09:53:13;29.80;81.80
47162;DHT22;32921;53.256;8.198;2022-08-25T09:55:43;30.30;81.20
47162;DHT22;32921;53.256;8.198;2022-08-25T09:58:17;30.70;80.40
47162;DHT22;32921;53.256;8.198;2022-08-25T10:00:43;30.70;79.80
47162;DHT22;32921;53.256;8.198;2022-08-25T10:03:19;30.40;80.30
47162;DHT22;32921;53.256;8.198;2022-08-25T10:08:32;30.70;77.80
47162;DHT22;32921;53.256;8.198;2022-08-25T10:11:01;30.90;78.10
47162;DHT22;32921;53.256;8.198;2022-08-25T10:13:44;30.90;74.80
47162;DHT22;32921;53.256;8.198;2022-08-25T10:16:21;31.30;74.60
47162;DHT22;32921;53.256;8.198;2022-08-25T10:22:05;31.10;74.50
47162;DHT22;32921;53.256;8.198;2022-08-25T10:24:31;30.70;77.20
47162;DHT22;32921;53.256;8.198;2022-08-25T10:27:17;31.00;74.30
47162;DHT22;32921;53.256;8.198;2022-08-25T10:29:50;31.60;71.00
47162;DHT22;32921;53.256;8.198;2022-08-25T10:35:51;31.70;71.00
47162;DHT22;32921;53.256;8.198;2022-08-25T10:38:58;31.80;71.20
47162;DHT22;32921;53.256;8.198;2022-08-25T10:44:03;31.10;70.80
47162;DHT22;32921;53.256;8.198;2022-08-25T10:46:36;31.70;68.80
47162;DHT22;32921;53.256;8.198;2022-08-25T11:07:51;31.50;72.10
47162;DHT22;32921;53.256;8.198;2022-08-25T11:10:55;31.30;70.40
47162;DHT22;32921;53.256;8.198;2022-08-25T11:13:41;30.50;73.10
47162;DHT22;32921;53.256;8.198;2022-08-25T11:16:17;31.00;71.60
47162;DHT22;32921;53.256;8.198;2022-08-25T11:18:53;32.00;69.40
47162;DHT22;32921;53.256;8.198;2022-08-25T11:21:43;32.50;67.10
47162;DHT22;32921;53.256;8.198;2022-08-25T11:27:05;33.50;65.20
47162;DHT22;32921;53.256;8.198;2022-08-25T11:29:34;33.90;63.70
47162;DHT22;32921;53.256;8.198;2022-08-25T11:32:01;33.00;64.60
47162;DHT22;32921;53.256;8.198;2022-08-25T11:34:32;32.70;64.50
47162;DHT22;32921;53.256;8.198;2022-08-25T11:37:04;32.30;64.90
47162;DHT22;32921;53.256;8.198;2022-08-25T11:48:45;33.40;64.70
47162;DHT22;32921;53.256;8.198;2022-08-25T11:51:45;32.80;62.20
47162;DHT22;32921;53.256;8.198;2022-08-25T11:54:43;31.90;63.80
47162;DHT22;32921;53.256;8.198;2022-08-25T11:57:29;32.10;62.80
47162;DHT22;32921;53.256;8.198;2022-08-25T12:00:07;32.50;62.00
47162;DHT22;32921;53.256;8.198;2022-08-25T12:02:47;32.50;63.20
47162;DHT22;32921;53.256;8.198;2022-08-25T12:10:24;32.40;62.00
47162;DHT22;32921;53.256;8.198;2022-08-25T12:13:04;32.60;60.80
47162;DHT22;32921;53.256;8.198;2022-08-25T12:18:22;33.50;59.50
47162;DHT22;32921;53.256;8.198;2022-08-25T12:23:42;34.10;59.00
47162;DHT22;32921;53.256;8.198;2022-08-25T12:26:31;34.30;57.60
47162;DHT22;32921;53.256;8.198;2022-08-25T12:37:27;34.90;55.60
47162;DHT22;32921;53.256;8.198;2022-08-25T12:39:59;33.30;55.00
47162;DHT22;32921;53.256;8.198;2022-08-25T12:42:36;33.90;54.30
47162;DHT22;32921;53.256;8.198;2022-08-25T12:47:52;35.10;53.30
47162;DHT22;32921;53.256;8.198;2022-08-25T12:50:40;34.60;53.40
47162;DHT22;32921;53.256;8.198;2022-08-25T12:53:33;34.20;53.20
47162;DHT22;32921;53.256;8.198;2022-08-25T12:56:05;34.20;52.70
47162;DHT22;32921;53.256;8.198;2022-08-25T12:59:00;34.10;51.60
47162;DHT22;32921;53.256;8.198;2022-08-25T13:13:09;35.80;49.10
47162;DHT22;32921;53.256;8.198;2022-08-25T13:15:45;35.80;49.00
47162;DHT22;32921;53.256;8.198;2022-08-25T13:18:29;36.10;49.90
47162;DHT22;32921;53.256;8.198;2022-08-25T13:21:23;36.90;48.60
47162;DHT22;32921;53.256;8.198;2022-08-25T13:23:52;35.90;48.50
47162;DHT22;32921;53.256;8.198;2022-08-25T13:26:30;34.30;50.00
47162;DHT22;32921;53.256;8.198;2022-08-25T13:29:02;34.20;51.20
47162;DHT22;32921;53.256;8.198;2022-08-25T13:31:37;34.90;49.80
47162;DHT22;32921;53.256;8.198;2022-08-25T13:34:07;34.10;51.20
47162;DHT22;32921;53.256;8.198;2022-08-25T13:36:44;34.90;49.60
47162;DHT22;32921;53.256;8.198;2022-08-25T13:39:29;32.80;52.10
47162;DHT22;32921;53.256;8.198;2022-08-25T13:41:58;33.80;52.30
47162;DHT22;32921;53.256;8.198;2022-08-25T13:44:27;35.00;50.70
47162;DHT22;32921;53.256;8.198;2022-08-25T13:47:16;34.90;49.60
47162;DHT22;32921;53.256;8.198;2022-08-25T13:49:46;34.80;50.40
47162;DHT22;32921;53.256;8.198;2022-08-25T13:52:32;34.40;51.10
47162;DHT22;32921;53.256;8.198;2022-08-25T13:54:59;35.00;49.90
47162;DHT22;32921;53.256;8.198;2022-08-25T13:57:27;35.10;49.30
47162;DHT22;32921;53.256;8.198;2022-08-25T14:00:05;35.70;48.80
47162;DHT22;32921;53.256;8.198;2022-08-25T14:05:04;34.80;50.20
47162;DHT22;32921;53.256;8.198;2022-08-25T14:07:30;35.00;49.80
47162;DHT22;32921;53.256;8.198;2022-08-25T14:10:43;35.80;48.80
47162;DHT22;32921;53.256;8.198;2022-08-25T14:12:46;35.70;48.50
47162;DHT22;32921;53.256;8.198;2022-08-25T14:17:44;34.50;49.30
47162;DHT22;32921;53.256;8.198;2022-08-25T14:20:22;33.80;49.70
47162;DHT22;32921;53.256;8.198;2022-08-25T14:22:58;34.50;50.30
47162;DHT22;32921;53.256;8.198;2022-08-25T14:25:26;33.20;52.10
47162;DHT22;32921;53.256;8.198;2022-08-25T14:27:57;33.50;52.20
47162;DHT22;32921;53.256;8.198;2022-08-25T14:30:23;34.50;50.80
47162;DHT22;32921;53.256;8.198;2022-08-25T14:32:49;34.10;52.10
47162;DHT22;32921;53.256;8.198;2022-08-25T14:35:16;33.90;52.80
47162;DHT22;32921;53.256;8.198;2022-08-25T14:37:43;32.50;55.60
47162;DHT22;32921;53.256;8.198;2022-08-25T14:40:10;31.50;58.20
47162;DHT22;32921;53.256;8.198;2022-08-25T14:42:38;32.30;57.70
47162;DHT22;32921;53.256;8.198;2022-08-25T14:45:04;31.80;56.90
47162;DHT22;32921;53.256;8.198;2022-08-25T14:47:31;32.60;55.30
47162;DHT22;32921;53.256;8.198;2022-08-25T14:49:57;33.00;55.70
47162;DHT22;32921;53.256;8.198;2022-08-25T14:52:27;34.10;55.40
47162;DHT22;32921;53.256;8.198;2022-08-25T14:54:55;34.40;53.70
47162;DHT22;32921;53.256;8.198;2022-08-25T14:57:24;33.60;54.20
47162;DHT22;32921;53.256;8.198;2022-08-25T14:59:50;33.40;55.40
47162;DHT22;32921;53.256;8.198;2022-08-25T15:02:17;33.30;55.90
47162;DHT22;32921;53.256;8.198;2022-08-25T15:04:54;33.20;56.10
47162;DHT22;32921;53.256;8.198;2022-08-25T15:07:22;33.80;54.40
47162;DHT22;32921;53.256;8.198;2022-08-25T15:10:07;33.50;55.20
47162;DHT22;32921;53.256;8.198;2022-08-25T15:12:33;34.20;54.60
47162;DHT22;32921;53.256;8.198;2022-08-25T15:14:58;34.90;53.20
47162;DHT22;32921;53.256;8.198;2022-08-25T15:17:26;34.10;54.10
47162;DHT22;32921;53.256;8.198;2022-08-25T15:19:51;32.40;56.60
47162;DHT22;32921;53.256;8.198;2022-08-25T15:22:17;32.20;57.30
47162;DHT22;32921;53.256;8.198;2022-08-25T15:24:43;32.20;57.00
47162;DHT22;32921;53.256;8.198;2022-08-25T15:27:08;32.30;57.70
47162;DHT22;32921;53.256;8.198;2022-08-25T15:29:35;33.00;55.80
47162;DHT22;32921;53.256;8.198;2022-08-25T15:32:02;33.80;55.50
47162;DHT22;32921;53.256;8.198;2022-08-25T15:34:29;33.50;54.00
47162;DHT22;32921;53.256;8.198;2022-08-25T15:36:56;34.00;53.90
47162;DHT22;32921;53.256;8.198;2022-08-25T15:39:22;34.20;53.30
47162;DHT22;32921;53.256;8.198;2022-08-25T15:45:10;34.30;54.10
47162;DHT22;32921;53.256;8.198;2022-08-25T15:47:36;33.90;54.50
47162;DHT22;32921;53.256;8.198;2022-08-25T15:50:08;33.70;55.60
47162;DHT22;32921;53.256;8.198;2022-08-25T15:52:34;34.00;54.80
47162;DHT22;32921;53.256;8.198;2022-08-25T15:55:00;34.20;54.70
47162;DHT22;32921;53.256;8.198;2022-08-25T15:57:26;34.30;53.90
47162;DHT22;32921;53.256;8.198;2022-08-25T15:59:51;34.10;53.20
47162;DHT22;32921;53.256;8.198;2022-08-25T16:02:17;33.10;55.20
47162;DHT22;32921;53.256;8.198;2022-08-25T16:04:43;32.80;55.90
47162;DHT22;32921;53.256;8.198;2022-08-25T16:07:09;32.70;55.90
47162;DHT22;32921;53.256;8.198;2022-08-25T16:09:35;32.30;57.20
47162;DHT22;32921;53.256;8.198;2022-08-25T16:12:01;31.90;57.50
47162;DHT22;32921;53.256;8.198;2022-08-25T16:14:27;32.00;58.20
47162;DHT22;32921;53.256;8.198;2022-08-25T16:16:53;31.60;58.40
47162;DHT22;32921;53.256;8.198;2022-08-25T16:19:18;31.80;58.60
47162;DHT22;32921;53.256;8.198;2022-08-25T16:21:44;32.20;57.70
47162;DHT22;32921;53.256;8.198;2022-08-25T16:24:09;32.30;57.30
47162;DHT22;32921;53.256;8.198;2022-08-25T16:26:35;33.10;56.30
47162;DHT22;32921;53.256;8.198;2022-08-25T16:29:03;32.90;56.30
47162;DHT22;32921;53.256;8.198;2022-08-25T16:31:29;32.60;56.10
47162;DHT22;32921;53.256;8.198;2022-08-25T16:33:55;32.60;56.60
47162;DHT22;32921;53.256;8.198;2022-08-25T16:36:22;32.60;56.60
47162;DHT22;32921;53.256;8.198;2022-08-25T16:38:49;32.60;56.90
47162;DHT22;32921;53.256;8.198;2022-08-25T16:41:19;31.10;60.00
47162;DHT22;32921;53.256;8.198;2022-08-25T16:43:45;30.40;62.40
47162;DHT22;32921;53.256;8.198;2022-08-25T16:46:13;30.00;63.10
47162;DHT22;32921;53.256;8.198;2022-08-25T16:48:40;29.60;64.60
47162;DHT22;32921;53.256;8.198;2022-08-25T16:51:08;29.20;65.50
47162;DHT22;32921;53.256;8.198;2022-08-25T16:53:34;29.20;65.90
47162;DHT22;32921;53.256;8.198;2022-08-25T16:56:19;29.20;66.30
47162;DHT22;32921;53.256;8.198;2022-08-25T16:58:52;29.30;65.70
47162;DHT22;32921;53.256;8.198;2022-08-25T17:01:20;29.10;67.40
47162;DHT22;32921;53.256;8.198;2022-08-25T17:03:46;28.90;67.40
47162;DHT22;32921;53.256;8.198;2022-08-25T17:06:12;28.90;68.00
47162;DHT22;32921;53.256;8.198;2022-08-25T17:08:39;28.70;68.50
47162;DHT22;32921;53.256;8.198;2022-08-25T17:11:14;28.70;69.30
47162;DHT22;32921;53.256;8.198;2022-08-25T17:13:43;28.60;69.20
47162;DHT22;32921;53.256;8.198;2022-08-25T17:16:09;28.60;69.60
47162;DHT22;32921;53.256;8.198;2022-08-25T17:18:35;28.60;69.50
47162;DHT22;32921;53.256;8.198;2022-08-25T17:21:06;28.40;70.20
47162;DHT22;32921;53.256;8.198;2022-08-25T17:23:35;28.30;71.10
47162;DHT22;32921;53.256;8.198;2022-08-25T17:26:02;28.20;71.30
47162;DHT22;32921;53.256;8.198;2022-08-25T17:28:28;28.10;71.60
47162;DHT22;32921;53.256;8.198;2022-08-25T17:30:54;28.00;72.20
47162;DHT22;32921;53.256;8.198;2022-08-25T17:33:20;27.90;72.90
47162;DHT22;32921;53.256;8.198;2022-08-25T17:35:48;27.90;73.30
47162;DHT22;32921;53.256;8.198;2022-08-25T17:38:17;27.80;73.50
47162;DHT22;32921;53.256;8.198;2022-08-25T17:40:45;27.70;74.30
47162;DHT22;32921;53.256;8.198;2022-08-25T17:43:11;27.60;74.70